sensor_id;sensor_type;location;lat;lon;timestamp;temperature;humidity
12872;DHT22;6504;53.766;9.626;2023-02-15T00:00:17;3.80;99.90
12872;DHT22;6504;53.766;9.626;2023-02-15T00:02:45;3.80;99.90
12872;DHT22;6504;53.766;9.626;2023-02-15T00:05:14;3.70;99.90
12872;DHT22;6504;53.766;9.626;2023-02-15T00:07:42;3.70;99.90
12872;DHT22;6504;53.766;9.626;2023-02-15T00:10:11;3.70;99.90
12872;DHT22;6504;53.766;9.626;2023-02-15T00:12:40;3.60;99.90
12872;DHT22;6504;53.766;9.626;2023-02-15T00:15:08;3.60;99.90
12872;DHT22;6504;53.766;9.626;2023-02-15T00:17:38;3.60;99.90
12872;DHT22;6504;53.766;9.626;2023-02-15T00:20:07;3.50;99.90
12872;DHT22;6504;53.766;9.626;2023-02-15T00:22:35;3.50;99.90
12872;DHT22;6504;53.766;9.626;2023-02-15T00:25:03;3.40;99.90
12872;DHT22;6504;53.766;9.626;2023-02-15T00:27:33;3.40;99.90
12872;DHT22;6504;53.766;9.626;2023-02-15T00:30:02;3.30;99.90
12872;DHT22;6504;53.766;9.626;2023-02-15T00:32:31;3.30;99.90
12872;DHT22;6504;53.766;9.626;2023-02-15T00:34:59;3.30;99.90
12872;DHT22;6504;53.766;9.626;2023-02-15T00:37:27;3.30;99.90
12872;DHT22;6504;53.766;9.626;2023-02-15T00:39:55;3.30;99.90
12872;DHT22;6504;53.766;9.626;2023-02-15T00:42:23;3.20;99.90
12872;DHT22;6504;53.766;9.626;2023-02-15T00:44:51;3.20;99.90
12872;DHT22;6504;53.766;9.626;2023-02-15T00:47:20;3.10;99.90
12872;DHT22;6504;53.766;9.626;2023-02-15T00:49:48;3.10;99.90
12872;DHT22;6504;53.766;9.626;2023-02-15T00:52:16;3.20;99.90
12872;DHT22;6504;53.766;9.626;2023-02-15T00:54:44;3.20;99.90
12872;DHT22;6504;53.766;9.626;2023-02-15T00:57:12;3.10;99.90
12872;DHT22;6504;53.766;9.626;2023-02-15T00:59:40;3.10;99.90
12872;DHT22;6504;53.766;9.626;2023-02-15T01:02:08;3.10;99.90
12872;DHT22;6504;53.766;9.626;2023-02-15T01:04:38;3.00;99.90
12872;DHT22;6504;53.766;9.626;2023-02-15T01:07:06;2.90;99.90
12872;DHT22;6504;53.766;9.626;2023-02-15T01:09:35;2.90;99.90
12872;DHT22;6504;53.766;9.626;2023-02-15T01:12:04;2.90;99.90
12872;DHT22;6504;53.766;9.626;2023-02-15T01:14:32;2.90;99.90
12872;DHT22;6504;53.766;9.626;2023-02-15T01:17:00;3.00;99.90
12872;DHT22;6504;53.766;9.626;2023-02-15T01:19:28;3.00;99.90
12872;DHT22;6504;53.766;9.626;2023-02-15T01:21:57;3.00;99.90
12872;DHT22;6504;53.766;9.626;2023-02-15T01:24:25;3.00;99.90
12872;DHT22;6504;53.766;9.626;2023-02-15T01:26:53;3.00;99.90
12872;DHT22;6504;53.766;9.626;2023-02-15T01:29:21;3.00;99.90
12872;DHT22;6504;53.766;9.626;2023-02-15T01:31:50;3.00;99.90
12872;DHT22;6504;53.766;9.626;2023-02-15T01:34:18;3.00;99.90
12872;DHT22;6504;53.766;9.626;2023-02-15T01:36:46;3.00;99.90
12872;DHT22;6504;53.766;9.626;2023-02-15T01:39:16;3.00;99.90
12872;DHT22;6504;53.766;9.626;2023-02-15T01:41:44;3.00;99.90
12872;DHT22;6504;53.766;9.626;2023-02-15T01:44:46;3.00;99.90
12872;DHT22;6504;53.766;9.626;2023-02-15T01:47:17;3.00;99.90
12872;DHT22;6504;53.766;9.626;2023-02-15T01:49:46;3.00;99.90
12872;DHT22;6504;53.766;9.626;2023-02-15T01:52:17;3.00;99.90
12872;DHT22;6504;53.766;9.626;2023-02-15T01:54:48;3.00;99.90
12872;DHT22;6504;53.766;9.626;2023-02-15T01:57:19;3.00;99.90
12872;DHT22;6504;53.766;9.626;2023-02-15T01:59:53;3.10;99.90
12872;DHT22;6504;53.766;9.626;2023-02-15T02:02:24;3.10;99.90
12872;DHT22;6504;53.766;9.626;2023-02-15T02:04:54;3.10;99.90
12872;DHT22;6504;53.766;9.626;2023-02-15T02:07:26;3.10;99.90
12872;DHT22;6504;53.766;9.626;2023-02-15T02:09:56;3.00;99.90
12872;DHT22;6504;53.766;9.626;2023-02-15T02:12:24;3.00;99.90
12872;DHT22;6504;53.766;9.626;2023-02-15T02:14:53;3.00;99.90
12872;DHT22;6504;53.766;9.626;2023-02-15T02:17:27;3.00;99.90
12872;DHT22;6504;53.766;9.626;2023-02-15T02:20:25;3.00;99.90
12872;DHT22;6504;53.766;9.626;2023-02-15T02:23:10;3.00;99.90
12872;DHT22;6504;53.766;9.626;2023-02-15T02:29:22;3.00;99.90
12872;DHT22;6504;53.766;9.626;2023-02-15T02:32:18;3.00;99.90
12872;DHT22;6504;53.766;9.626;2023-02-15T02:34:59;3.00;99.90
12872;DHT22;6504;53.766;9.626;2023-02-15T02:37:33;3.00;99.90
12872;DHT22;6504;53.766;9.626;2023-02-15T02:40:10;3.00;99.90
12872;DHT22;6504;53.766;9.626;2023-02-15T02:42:43;3.10;99.90
12872;DHT22;6504;53.766;9.626;2023-02-15T02:45:16;3.10;99.90
12872;DHT22;6504;53.766;9.626;2023-02-15T02:47:48;3.10;99.90
12872;DHT22;6504;53.766;9.626;2023-02-15T02:50:23;3.20;99.90
12872;DHT22;6504;53.766;9.626;2023-02-15T02:52:53;3.20;99.90
12872;DHT22;6504;53.766;9.626;2023-02-15T02:55:25;3.20;99.90
12872;DHT22;6504;53.766;9.626;2023-02-15T02:58:09;3.30;99.90
12872;DHT22;6504;53.766;9.626;2023-02-15T03:00:41;3.30;99.90
12872;DHT22;6504;53.766;9.626;2023-02-15T03:03:13;3.30;99.90
12872;DHT22;6504;53.766;9.626;2023-02-15T03:05:45;3.30;99.90
12872;DHT22;6504;53.766;9.626;2023-02-15T03:08:16;3.30;99.90
12872;DHT22;6504;53.766;9.626;2023-02-15T03:10:51;3.30;99.90
12872;DHT22;6504;53.766;9.626;2023-02-15T03:13:21;3.30;99.90
12872;DHT22;6504;53.766;9.626;2023-02-15T03:15:50;3.30;99.90
12872;DHT22;6504;53.766;9.626;2023-02-15T03:18:38;3.30;99.90
12872;DHT22;6504;53.766;9.626;2023-02-15T03:21:11;3.30;99.90
12872;DHT22;6504;53.766;9.626;2023-02-15T03:23:52;3.40;99.90
12872;DHT22;6504;53.766;9.626;2023-02-15T03:26:24;3.40;99.90
12872;DHT22;6504;53.766;9.626;2023-02-15T03:28:55;3.30;99.90
12872;DHT22;6504;53.766;9.626;2023-02-15T03:31:27;3.30;99.90
12872;DHT22;6504;53.766;9.626;2023-02-15T03:34:00;3.30;99.90
12872;DHT22;6504;53.766;9.626;2023-02-15T03:36:33;3.40;99.90
12872;DHT22;6504;53.766;9.626;2023-02-15T03:39:09;3.30;99.90
12872;DHT22;6504;53.766;9.626;2023-02-15T03:41:42;3.30;99.90
12872;DHT22;6504;53.766;9.626;2023-02-15T03:44:16;3.30;99.90
12872;DHT22;6504;53.766;9.626;2023-02-15T03:46:50;3.30;99.90
12872;DHT22;6504;53.766;9.626;2023-02-15T03:49:24;3.40;99.90
12872;DHT22;6504;53.766;9.626;2023-02-15T03:51:56;3.30;99.90
12872;DHT22;6504;53.766;9.626;2023-02-15T03:54:28;3.30;99.90
12872;DHT22;6504;53.766;9.626;2023-02-15T03:57:16;3.40;99.90
12872;DHT22;6504;53.766;9.626;2023-02-15T04:00:05;3.40;99.90
12872;DHT22;6504;53.766;9.626;2023-02-15T04:03:11;3.40;99.90
12872;DHT22;6504;53.766;9.626;2023-02-15T04:05:41;3.40;99.90
12872;DHT22;6504;53.766;9.626;2023-02-15T04:08:11;3.40;99.90
12872;DHT22;6504;53.766;9.626;2023-02-15T04:10:39;3.40;99.90
12872;DHT22;6504;53.766;9.626;2023-02-15T04:13:19;3.40;99.90
12872;DHT22;6504;53.766;9.626;2023-02-15T04:15:47;3.40;99.90
12872;DHT22;6504;53.766;9.626;2023-02-15T04:18:36;3.40;99.90
12872;DHT22;6504;53.766;9.626;2023-02-15T04:21:24;3.40;99.90
12872;DHT22;6504;53.766;9.626;2023-02-15T04:24:11;3.50;99.90
12872;DHT22;6504;53.766;9.626;2023-02-15T04:26:57;3.50;99.90
12872;DHT22;6504;53.766;9.626;2023-02-15T04:29:27;3.50;99.90
12872;DHT22;6504;53.766;9.626;2023-02-15T04:31:59;3.50;99.90
12872;DHT22;6504;53.766;9.626;2023-02-15T04:34:28;3.50;99.90
12872;DHT22;6504;53.766;9.626;2023-02-15T04:36:56;3.50;99.90
12872;DHT22;6504;53.766;9.626;2023-02-15T04:39:25;3.40;99.90
12872;DHT22;6504;53.766;9.626;2023-02-15T04:41:53;3.50;99.90
12872;DHT22;6504;53.766;9.626;2023-02-15T04:44:22;3.50;99.90
12872;DHT22;6504;53.766;9.626;2023-02-15T04:46:50;3.40;99.90
12872;DHT22;6504;53.766;9.626;2023-02-15T04:49:18;3.40;99.90
12872;DHT22;6504;53.766;9.626;2023-02-15T04:51:46;3.40;99.90
12872;DHT22;6504;53.766;9.626;2023-02-15T04:54:14;3.40;99.90
12872;DHT22;6504;53.766;9.626;2023-02-15T04:56:43;3.50;99.90
12872;DHT22;6504;53.766;9.626;2023-02-15T04:59:12;3.50;99.90
12872;DHT22;6504;53.766;9.626;2023-02-15T05:01:41;3.40;99.90
12872;DHT22;6504;53.766;9.626;2023-02-15T05:04:09;3.40;99.90
12872;DHT22;6504;53.766;9.626;2023-02-15T05:06:37;3.50;99.90
12872;DHT22;6504;53.766;9.626;2023-02-15T05:09:05;3.40;99.90
12872;DHT22;6504;53.766;9.626;2023-02-15T05:11:33;3.40;99.90
12872;DHT22;6504;53.766;9.626;2023-02-15T05:14:03;3.40;99.90
12872;DHT22;6504;53.766;9.626;2023-02-15T05:16:31;3.40;99.90
12872;DHT22;6504;53.766;9.626;2023-02-15T05:18:59;3.30;99.90
12872;DHT22;6504;53.766;9.626;2023-02-15T05:21:27;3.30;99.90
12872;DHT22;6504;53.766;9.626;2023-02-15T05:23:55;3.30;99.90
12872;DHT22;6504;53.766;9.626;2023-02-15T05:26:24;3.30;99.90
12872;DHT22;6504;53.766;9.626;2023-02-15T05:29:11;3.30;99.90
12872;DHT22;6504;53.766;9.626;2023-02-15T05:31:39;3.30;99.90
12872;DHT22;6504;53.766;9.626;2023-02-15T05:34:08;3.30;99.90
12872;DHT22;6504;53.766;9.626;2023-02-15T05:36:36;3.40;99.90
12872;DHT22;6504;53.766;9.626;2023-02-15T05:39:04;3.30;99.90
12872;DHT22;6504;53.766;9.626;2023-02-15T05:41:33;3.30;99.90
12872;DHT22;6504;53.766;9.626;2023-02-15T05:44:01;3.30;99.90
12872;DHT22;6504;53.766;9.626;2023-02-15T05:46:31;3.30;99.90
12872;DHT22;6504;53.766;9.626;2023-02-15T05:48:59;3.30;99.90
12872;DHT22;6504;53.766;9.626;2023-02-15T05:51:27;3.30;99.90
12872;DHT22;6504;53.766;9.626;2023-02-15T05:53:55;3.30;99.90
12872;DHT22;6504;53.766;9.626;2023-02-15T05:56:23;3.30;99.90
12872;DHT22;6504;53.766;9.626;2023-02-15T05:58:53;3.30;99.90
12872;DHT22;6504;53.766;9.626;2023-02-15T06:01:23;3.30;99.90
12872;DHT22;6504;53.766;9.626;2023-02-15T06:03:53;3.30;99.90
12872;DHT22;6504;53.766;9.626;2023-02-15T06:06:23;3.30;99.90
12872;DHT22;6504;53.766;9.626;2023-02-15T06:08:54;3.30;99.90
12872;DHT22;6504;53.766;9.626;2023-02-15T06:11:24;3.30;99.90
12872;DHT22;6504;53.766;9.626;2023-02-15T06:13:54;3.40;99.90
12872;DHT22;6504;53.766;9.626;2023-02-15T06:16:24;3.40;99.90
12872;DHT22;6504;53.766;9.626;2023-02-15T06:18:55;3.40;99.90
12872;DHT22;6504;53.766;9.626;2023-02-15T06:21:27;3.40;99.90
12872;DHT22;6504;53.766;9.626;2023-02-15T06:23:56;3.30;99.90
12872;DHT22;6504;53.766;9.626;2023-02-15T06:26:27;3.30;99.90
12872;DHT22;6504;53.766;9.626;2023-02-15T06:28:56;3.40;99.90
12872;DHT22;6504;53.766;9.626;2023-02-15T06:31:25;3.30;99.90
12872;DHT22;6504;53.766;9.626;2023-02-15T06:33:55;3.40;99.90
12872;DHT22;6504;53.766;9.626;2023-02-15T06:36:27;3.40;99.90
12872;DHT22;6504;53.766;9.626;2023-02-15T06:38:56;3.30;99.90
12872;DHT22;6504;53.766;9.626;2023-02-15T06:41:24;3.30;99.90
12872;DHT22;6504;53.766;9.626;2023-02-15T06:43:52;3.30;99.90
12872;DHT22;6504;53.766;9.626;2023-02-15T06:46:20;3.40;99.90
12872;DHT22;6504;53.766;9.626;2023-02-15T06:48:48;3.40;99.90
12872;DHT22;6504;53.766;9.626;2023-02-15T06:51:18;3.30;99.90
12872;DHT22;6504;53.766;9.626;2023-02-15T06:53:47;3.30;99.90
12872;DHT22;6504;53.766;9.626;2023-02-15T06:56:15;3.30;99.90
12872;DHT22;6504;53.766;9.626;2023-02-15T06:58:43;3.30;99.90
12872;DHT22;6504;53.766;9.626;2023-02-15T07:01:13;3.30;99.90
12872;DHT22;6504;53.766;9.626;2023-02-15T07:03:42;3.30;99.90
12872;DHT22;6504;53.766;9.626;2023-02-15T07:06:10;3.30;99.90
12872;DHT22;6504;53.766;9.626;2023-02-15T07:08:40;3.30;99.90
12872;DHT22;6504;53.766;9.626;2023-02-15T07:11:08;3.30;99.90
12872;DHT22;6504;53.766;9.626;2023-02-15T07:14:08;3.30;99.90
12872;DHT22;6504;53.766;9.626;2023-02-15T07:16:36;3.30;99.90
12872;DHT22;6504;53.766;9.626;2023-02-15T07:19:04;3.30;99.90
12872;DHT22;6504;53.766;9.626;2023-02-15T07:21:32;3.30;99.90
12872;DHT22;6504;53.766;9.626;2023-02-15T07:24:02;3.30;99.90
12872;DHT22;6504;53.766;9.626;2023-02-15T07:26:31;3.30;99.90
12872;DHT22;6504;53.766;9.626;2023-02-15T07:28:59;3.30;99.90
12872;DHT22;6504;53.766;9.626;2023-02-15T07:31:29;3.30;99.90
12872;DHT22;6504;53.766;9.626;2023-02-15T07:33:57;3.30;99.90
12872;DHT22;6504;53.766;9.626;2023-02-15T07:36:25;3.30;99.90
12872;DHT22;6504;53.766;9.626;2023-02-15T07:38:53;3.30;99.90
12872;DHT22;6504;53.766;9.626;2023-02-15T07:41:23;3.30;99.90
12872;DHT22;6504;53.766;9.626;2023-02-15T07:43:51;3.30;99.90
12872;DHT22;6504;53.766;9.626;2023-02-15T07:46:19;3.30;99.90
12872;DHT22;6504;53.766;9.626;2023-02-15T07:48:48;3.30;99.90
12872;DHT22;6504;53.766;9.626;2023-02-15T07:51:16;3.30;99.90
12872;DHT22;6504;53.766;9.626;2023-02-15T07:53:44;3.30;99.90
12872;DHT22;6504;53.766;9.626;2023-02-15T07:56:14;3.30;99.90
12872;DHT22;6504;53.766;9.626;2023-02-15T07:58:44;3.30;99.90
12872;DHT22;6504;53.766;9.626;2023-02-15T08:01:26;3.30;99.90
12872;DHT22;6504;53.766;9.626;2023-02-15T08:03:54;3.20;99.90
12872;DHT22;6504;53.766;9.626;2023-02-15T08:06:27;3.20;99.90
12872;DHT22;6504;53.766;9.626;2023-02-15T08:08:56;3.20;99.90
12872;DHT22;6504;53.766;9.626;2023-02-15T08:11:25;3.20;99.90
12872;DHT22;6504;53.766;9.626;2023-02-15T08:13:59;3.20;99.90
12872;DHT22;6504;53.766;9.626;2023-02-15T08:16:31;3.30;99.90
12872;DHT22;6504;53.766;9.626;2023-02-15T08:19:01;3.20;99.90
12872;DHT22;6504;53.766;9.626;2023-02-15T08:21:32;3.30;99.90
12872;DHT22;6504;53.766;9.626;2023-02-15T08:24:01;3.30;99.90
12872;DHT22;6504;53.766;9.626;2023-02-15T08:26:29;3.30;99.90
12872;DHT22;6504;53.766;9.626;2023-02-15T08:29:00;3.30;99.90
12872;DHT22;6504;53.766;9.626;2023-02-15T08:31:29;3.30;99.90
12872;DHT22;6504;53.766;9.626;2023-02-15T08:33:58;3.40;99.90
12872;DHT22;6504;53.766;9.626;2023-02-15T08:36:30;3.40;99.90
12872;DHT22;6504;53.766;9.626;2023-02-15T08:39:01;3.40;99.90
12872;DHT22;6504;53.766;9.626;2023-02-15T08:41:31;3.40;99.90
12872;DHT22;6504;53.766;9.626;2023-02-15T08:44:03;3.40;99.90
12872;DHT22;6504;53.766;9.626;2023-02-15T08:46:33;3.50;99.90
12872;DHT22;6504;53.766;9.626;2023-02-15T08:49:02;3.50;99.90
12872;DHT22;6504;53.766;9.626;2023-02-15T08:51:32;3.50;99.90
12872;DHT22;6504;53.766;9.626;2023-02-15T08:54:02;3.50;99.90
12872;DHT22;6504;53.766;9.626;2023-02-15T08:56:33;3.50;99.90
12872;DHT22;6504;53.766;9.626;2023-02-15T08:59:04;3.50;99.90
12872;DHT22;6504;53.766;9.626;2023-02-15T09:01:34;3.60;99.90
12872;DHT22;6504;53.766;9.626;2023-02-15T09:04:04;3.50;99.90
12872;DHT22;6504;53.766;9.626;2023-02-15T09:06:37;3.60;99.90
12872;DHT22;6504;53.766;9.626;2023-02-15T09:09:05;3.60;99.90
12872;DHT22;6504;53.766;9.626;2023-02-15T09:11:35;3.60;99.90
12872;DHT22;6504;53.766;9.626;2023-02-15T09:14:08;3.60;99.90
12872;DHT22;6504;53.766;9.626;2023-02-15T09:16:37;3.70;99.90
12872;DHT22;6504;53.766;9.626;2023-02-15T09:19:06;3.70;99.90
12872;DHT22;6504;53.766;9.626;2023-02-15T09:21:36;3.70;99.90
12872;DHT22;6504;53.766;9.626;2023-02-15T09:24:08;3.80;99.90
12872;DHT22;6504;53.766;9.626;2023-02-15T09:26:38;3.80;99.90
12872;DHT22;6504;53.766;9.626;2023-02-15T09:29:09;3.80;99.90
12872;DHT22;6504;53.766;9.626;2023-02-15T09:31:39;3.80;99.90
12872;DHT22;6504;53.766;9.626;2023-02-15T09:34:11;3.90;99.90
12872;DHT22;6504;53.766;9.626;2023-02-15T09:36:40;3.90;99.90
12872;DHT22;6504;53.766;9.626;2023-02-15T09:39:10;3.90;99.90
12872;DHT22;6504;53.766;9.626;2023-02-15T09:41:59;3.90;99.90
12872;DHT22;6504;53.766;9.626;2023-02-15T09:44:40;3.90;99.90
12872;DHT22;6504;53.766;9.626;2023-02-15T09:47:37;3.90;99.90
12872;DHT22;6504;53.766;9.626;2023-02-15T09:50:11;3.90;99.90
12872;DHT22;6504;53.766;9.626;2023-02-15T09:52:55;4.00;99.90
12872;DHT22;6504;53.766;9.626;2023-02-15T09:55:38;4.00;99.90
12872;DHT22;6504;53.766;9.626;2023-02-15T09:58:16;4.00;99.90
12872;DHT22;6504;53.766;9.626;2023-02-15T10:00:54;4.00;99.90
12872;DHT22;6504;53.766;9.626;2023-02-15T10:03:37;4.00;99.90
12872;DHT22;6504;53.766;9.626;2023-02-15T10:06:29;4.00;99.90
12872;DHT22;6504;53.766;9.626;2023-02-15T10:09:14;4.10;99.90
12872;DHT22;6504;53.766;9.626;2023-02-15T10:11:56;4.10;99.90
12872;DHT22;6504;53.766;9.626;2023-02-15T10:14:41;4.10;99.90
12872;DHT22;6504;53.766;9.626;2023-02-15T10:17:24;4.10;99.90
12872;DHT22;6504;53.766;9.626;2023-02-15T10:20:08;4.20;99.90
12872;DHT22;6504;53.766;9.626;2023-02-15T10:22:50;4.10;99.90
12872;DHT22;6504;53.766;9.626;2023-02-15T10:25:29;4.20;99.90
12872;DHT22;6504;53.766;9.626;2023-02-15T10:28:04;4.10;99.90
12872;DHT22;6504;53.766;9.626;2023-02-15T10:30:42;4.20;99.90
12872;DHT22;6504;53.766;9.626;2023-02-15T10:33:27;4.20;99.90
12872;DHT22;6504;53.766;9.626;2023-02-15T10:36:07;4.20;99.90
12872;DHT22;6504;53.766;9.626;2023-02-15T10:38:42;4.20;99.90
12872;DHT22;6504;53.766;9.626;2023-02-15T10:41:25;4.20;99.90
12872;DHT22;6504;53.766;9.626;2023-02-15T10:44:11;4.20;99.90
12872;DHT22;6504;53.766;9.626;2023-02-15T10:47:13;4.20;99.90
12872;DHT22;6504;53.766;9.626;2023-02-15T10:49:59;4.20;99.90
12872;DHT22;6504;53.766;9.626;2023-02-15T10:52:46;4.10;99.90
12872;DHT22;6504;53.766;9.626;2023-02-15T10:55:25;4.10;99.90
12872;DHT22;6504;53.766;9.626;2023-02-15T10:58:07;4.10;99.90
12872;DHT22;6504;53.766;9.626;2023-02-15T11:00:43;4.20;99.90
12872;DHT22;6504;53.766;9.626;2023-02-15T11:03:27;4.20;99.90
12872;DHT22;6504;53.766;9.626;2023-02-15T11:06:04;4.20;99.90
12872;DHT22;6504;53.766;9.626;2023-02-15T11:08:35;4.30;99.90
12872;DHT22;6504;53.766;9.626;2023-02-15T11:11:07;4.30;99.90
12872;DHT22;6504;53.766;9.626;2023-02-15T11:13:39;4.30;99.90
12872;DHT22;6504;53.766;9.626;2023-02-15T11:16:14;4.30;99.90
12872;DHT22;6504;53.766;9.626;2023-02-15T11:18:48;4.30;99.90
12872;DHT22;6504;53.766;9.626;2023-02-15T11:21:22;4.30;99.90
12872;DHT22;6504;53.766;9.626;2023-02-15T11:23:51;4.40;99.90
12872;DHT22;6504;53.766;9.626;2023-02-15T11:26:27;4.40;99.90
12872;DHT22;6504;53.766;9.626;2023-02-15T11:29:00;4.40;99.90
12872;DHT22;6504;53.766;9.626;2023-02-15T11:31:36;4.40;99.90
12872;DHT22;6504;53.766;9.626;2023-02-15T11:34:16;4.40;99.90
12872;DHT22;6504;53.766;9.626;2023-02-15T11:36:50;4.40;99.90
12872;DHT22;6504;53.766;9.626;2023-02-15T11:39:20;4.40;99.90
12872;DHT22;6504;53.766;9.626;2023-02-15T11:41:52;4.50;99.90
12872;DHT22;6504;53.766;9.626;2023-02-15T11:44:25;4.50;99.90
12872;DHT22;6504;53.766;9.626;2023-02-15T11:46:56;4.50;99.90
12872;DHT22;6504;53.766;9.626;2023-02-15T11:49:27;4.50;99.90
12872;DHT22;6504;53.766;9.626;2023-02-15T11:52:00;4.50;99.90
12872;DHT22;6504;53.766;9.626;2023-02-15T11:54:30;4.60;99.90
12872;DHT22;6504;53.766;9.626;2023-02-15T11:57:13;4.60;99.90
12872;DHT22;6504;53.766;9.626;2023-02-15T11:59:46;4.60;99.90
12872;DHT22;6504;53.766;9.626;2023-02-15T12:02:18;4.60;99.90
12872;DHT22;6504;53.766;9.626;2023-02-15T12:04:51;4.60;99.90
12872;DHT22;6504;53.766;9.626;2023-02-15T12:07:24;4.60;99.90
12872;DHT22;6504;53.766;9.626;2023-02-15T12:09:59;4.70;99.90
12872;DHT22;6504;53.766;9.626;2023-02-15T12:12:31;4.70;99.90
12872;DHT22;6504;53.766;9.626;2023-02-15T12:15:01;4.70;99.90
12872;DHT22;6504;53.766;9.626;2023-02-15T12:17:32;4.70;99.90
12872;DHT22;6504;53.766;9.626;2023-02-15T12:20:04;4.80;99.90
12872;DHT22;6504;53.766;9.626;2023-02-15T12:22:36;4.80;99.90
12872;DHT22;6504;53.766;9.626;2023-02-15T12:25:21;4.80;99.90
12872;DHT22;6504;53.766;9.626;2023-02-15T12:27:50;4.80;99.90
12872;DHT22;6504;53.766;9.626;2023-02-15T12:30:23;4.90;99.90
12872;DHT22;6504;53.766;9.626;2023-02-15T12:32:56;4.90;99.90
12872;DHT22;6504;53.766;9.626;2023-02-15T12:35:29;4.90;99.90
12872;DHT22;6504;53.766;9.626;2023-02-15T12:38:03;4.90;99.90
12872;DHT22;6504;53.766;9.626;2023-02-15T12:40:33;5.00;99.90
12872;DHT22;6504;53.766;9.626;2023-02-15T12:43:02;5.00;99.90
12872;DHT22;6504;53.766;9.626;2023-02-15T12:45:37;5.00;99.90
12872;DHT22;6504;53.766;9.626;2023-02-15T12:48:13;5.00;99.90
12872;DHT22;6504;53.766;9.626;2023-02-15T12:50:43;5.00;99.90
12872;DHT22;6504;53.766;9.626;2023-02-15T12:53:16;5.10;99.90
12872;DHT22;6504;53.766;9.626;2023-02-15T12:55:52;5.10;99.90
12872;DHT22;6504;53.766;9.626;2023-02-15T12:58:21;5.10;99.90
12872;DHT22;6504;53.766;9.626;2023-02-15T13:01:11;5.10;99.90
12872;DHT22;6504;53.766;9.626;2023-02-15T13:03:55;5.10;99.90
12872;DHT22;6504;53.766;9.626;2023-02-15T13:06:24;5.10;99.90
12872;DHT22;6504;53.766;9.626;2023-02-15T13:08:55;5.10;99.90
12872;DHT22;6504;53.766;9.626;2023-02-15T13:11:27;5.10;99.90
12872;DHT22;6504;53.766;9.626;2023-02-15T13:14:02;5.10;99.90
12872;DHT22;6504;53.766;9.626;2023-02-15T13:16:32;5.20;99.90
12872;DHT22;6504;53.766;9.626;2023-02-15T13:19:04;5.20;99.90
12872;DHT22;6504;53.766;9.626;2023-02-15T13:21:37;5.20;99.90
12872;DHT22;6504;53.766;9.626;2023-02-15T13:24:17;5.20;99.90
12872;DHT22;6504;53.766;9.626;2023-02-15T13:26:47;5.20;99.90
12872;DHT22;6504;53.766;9.626;2023-02-15T13:29:19;5.20;99.90
12872;DHT22;6504;53.766;9.626;2023-02-15T13:31:50;5.20;99.90
12872;DHT22;6504;53.766;9.626;2023-02-15T13:34:23;5.20;99.90
12872;DHT22;6504;53.766;9.626;2023-02-15T13:36:57;5.20;99.90
12872;DHT22;6504;53.766;9.626;2023-02-15T13:39:31;5.30;99.90
12872;DHT22;6504;53.766;9.626;2023-02-15T13:42:12;5.30;99.90
12872;DHT22;6504;53.766;9.626;2023-02-15T13:44:57;5.30;99.90
12872;DHT22;6504;53.766;9.626;2023-02-15T13:47:34;5.30;99.90
12872;DHT22;6504;53.766;9.626;2023-02-15T13:50:15;5.30;99.90
12872;DHT22;6504;53.766;9.626;2023-02-15T13:52:49;5.30;99.90
12872;DHT22;6504;53.766;9.626;2023-02-15T13:55:32;5.30;99.90
12872;DHT22;6504;53.766;9.626;2023-02-15T14:01:09;5.40;99.90
12872;DHT22;6504;53.766;9.626;2023-02-15T14:03:56;5.40;99.90
12872;DHT22;6504;53.766;9.626;2023-02-15T14:06:58;5.40;99.90
12872;DHT22;6504;53.766;9.626;2023-02-15T14:09:42;5.40;99.90
12872;DHT22;6504;53.766;9.626;2023-02-15T14:12:30;5.40;99.90
12872;DHT22;6504;53.766;9.626;2023-02-15T14:18:04;5.40;99.90
12872;DHT22;6504;53.766;9.626;2023-02-15T14:20:47;5.50;99.90
12872;DHT22;6504;53.766;9.626;2023-02-15T14:23:28;5.50;99.90
12872;DHT22;6504;53.766;9.626;2023-02-15T14:26:02;5.50;99.90
12872;DHT22;6504;53.766;9.626;2023-02-15T14:28:37;5.50;99.90
12872;DHT22;6504;53.766;9.626;2023-02-15T14:31:09;5.50;99.90
12872;DHT22;6504;53.766;9.626;2023-02-15T14:33:40;5.50;99.90
12872;DHT22;6504;53.766;9.626;2023-02-15T14:36:16;5.50;99.90
12872;DHT22;6504;53.766;9.626;2023-02-15T14:38:56;5.50;99.90
12872;DHT22;6504;53.766;9.626;2023-02-15T14:41:31;5.50;99.90
12872;DHT22;6504;53.766;9.626;2023-02-15T14:44:10;5.50;99.90
12872;DHT22;6504;53.766;9.626;2023-02-15T14:46:46;5.50;99.90
12872;DHT22;6504;53.766;9.626;2023-02-15T14:49:19;5.50;99.90
12872;DHT22;6504;53.766;9.626;2023-02-15T14:51:57;5.50;99.90
12872;DHT22;6504;53.766;9.626;2023-02-15T14:57:36;5.60;99.90
12872;DHT22;6504;53.766;9.626;2023-02-15T15:00:30;5.60;99.90
12872;DHT22;6504;53.766;9.626;2023-02-15T15:03:00;5.60;99.90
12872;DHT22;6504;53.766;9.626;2023-02-15T15:05:33;5.60;99.90
12872;DHT22;6504;53.766;9.626;2023-02-15T15:08:03;5.60;99.90
12872;DHT22;6504;53.766;9.626;2023-02-15T15:10:39;5.60;99.90
12872;DHT22;6504;53.766;9.626;2023-02-15T15:16:52;5.60;99.90
12872;DHT22;6504;53.766;9.626;2023-02-15T15:22:32;5.60;99.90
12872;DHT22;6504;53.766;9.626;2023-02-15T15:25:01;5.60;99.90
12872;DHT22;6504;53.766;9.626;2023-02-15T15:27:47;5.60;99.90
12872;DHT22;6504;53.766;9.626;2023-02-15T15:30:49;5.60;99.90
12872;DHT22;6504;53.766;9.626;2023-02-15T15:40:07;5.50;99.90
12872;DHT22;6504;53.766;9.626;2023-02-15T15:42:48;5.50;99.90
12872;DHT22;6504;53.766;9.626;2023-02-15T15:45:33;5.40;99.90
12872;DHT22;6504;53.766;9.626;2023-02-15T15:48:26;5.40;99.90
12872;DHT22;6504;53.766;9.626;2023-02-15T15:51:00;5.30;99.90
12872;DHT22;6504;53.766;9.626;2023-02-15T15:53:37;5.30;99.90
12872;DHT22;6504;53.766;9.626;2023-02-15T15:56:13;5.30;99.90
12872;DHT22;6504;53.766;9.626;2023-02-15T15:58:46;5.30;99.90
12872;DHT22;6504;53.766;9.626;2023-02-15T16:01:16;5.30;99.90
12872;DHT22;6504;53.766;9.626;2023-02-15T16:03:52;5.20;99.90
12872;DHT22;6504;53.766;9.626;2023-02-15T16:06:30;5.20;99.90
12872;DHT22;6504;53.766;9.626;2023-02-15T16:09:15;5.10;99.90
12872;DHT22;6504;53.766;9.626;2023-02-15T16:11:46;5.10;99.90
12872;DHT22;6504;53.766;9.626;2023-02-15T16:14:16;5.00;99.90
12872;DHT22;6504;53.766;9.626;2023-02-15T16:16:51;4.90;99.90
12872;DHT22;6504;53.766;9.626;2023-02-15T16:19:23;4.90;99.90
12872;DHT22;6504;53.766;9.626;2023-02-15T16:21:54;4.90;99.90
12872;DHT22;6504;53.766;9.626;2023-02-15T16:24:30;4.80;99.90
12872;DHT22;6504;53.766;9.626;2023-02-15T16:27:17;4.80;99.90
12872;DHT22;6504;53.766;9.626;2023-02-15T16:29:47;4.80;99.90
12872;DHT22;6504;53.766;9.626;2023-02-15T16:32:18;4.80;99.90
12872;DHT22;6504;53.766;9.626;2023-02-15T16:34:54;4.80;99.90
12872;DHT22;6504;53.766;9.626;2023-02-15T16:37:25;4.70;99.90
12872;DHT22;6504;53.766;9.626;2023-02-15T16:39:54;4.70;99.90
12872;DHT22;6504;53.766;9.626;2023-02-15T16:42:23;4.70;99.90
12872;DHT22;6504;53.766;9.626;2023-02-15T16:44:55;4.70;99.90
12872;DHT22;6504;53.766;9.626;2023-02-15T16:47:29;4.70;99.90
12872;DHT22;6504;53.766;9.626;2023-02-15T16:50:00;4.70;99.90
12872;DHT22;6504;53.766;9.626;2023-02-15T16:52:30;4.70;99.90
12872;DHT22;6504;53.766;9.626;2023-02-15T16:55:00;4.70;99.90
12872;DHT22;6504;53.766;9.626;2023-02-15T16:57:33;4.70;99.90
12872;DHT22;6504;53.766;9.626;2023-02-15T17:00:04;4.70;99.90
12872;DHT22;6504;53.766;9.626;2023-02-15T17:02:34;4.70;99.90
12872;DHT22;6504;53.766;9.626;2023-02-15T17:05:22;4.70;99.90
12872;DHT22;6504;53.766;9.626;2023-02-15T17:08:06;4.60;99.90